logo
Search for airport 
image banner adimage banner adimage banner ad
image banner ad

FATW - Tswalu Game Reserve

Located in Kuruman, South Africa

ICAO - FATW, IATA -

Data provided by Airmate  

General information

Coordinates: S27°12'10" E22°28'51"
Elevation is 3918 feet MSL.
Magnetic variation is -18° East
View others Airports in Northern Cape

Operational data

Special qualification required
Current time UTC:
Current local time:
Weather at : - ( 0 km )
METAR: KAFP 282032Z AUTO 32006KT 10SM SCT070 BKN100 30/13 A2991 RMK AO2 T03040125
View NOTAMs / SUP AIP / TFR affecting this airport [VIEW]
Communications frequencies: [VIEW]

Runways:

RWY identifierQFULength (ft)Width (ft)SurfaceLDA (ft)
18160°662945ASPH6660
36340°662945ASPH6660

Airport contact information

Address: Kuruman South Africa

Satellite view of FATW